METAR Data
IDs: Format: Raw Decoded Include TAF

Data at: 1149 UTC 16 Oct 2018

PAUT 161135Z AUTO 25003KT 3SM +DZ SCT013 BKN029 OVC038 08/07 A2905 RMK AO2 P0003 T00770071
PAUT 161115Z AUTO 26003KT 5SM DZ BKN021 OVC027 08/07 A2905 RMK AO2 P0001 T00770070
PAUT 161055Z AUTO 23006KT 5SM RA BKN020 BKN025 OVC031 08/07 A2904 RMK AO2 P0001 T00780070
PAUT 161035Z AUTO 26007KT 7SM RA BKN020 OVC025 08/07 A2904 RMK AO2 T00800068
PAUT 161015Z AUTO 24005KT 10SM BKN018 BKN024 OVC028 08/07 A2904 RMK AO2 T00820068
PAUT 160955Z AUTO 26004KT 10SM SCT018 BKN027 OVC041 08/07 A2903 RMK AO2 P0001 T00820067
PAUT 160935Z AUTO 27005KT 10SM -DZ BKN022 BKN029 OVC034 09/07 A2903 RMK AO2 T00860067
PAUT 160915Z AUTO 27007KT 10SM BKN022 BKN027 OVC032 09/07 A2902 RMK AO2 T00850068
PAUT 160855Z AUTO 26007KT 10SM SCT018 BKN028 OVC049 08/07 A2901 RMK AO2 P0001 60002 T00820070 400910075
PAUT 160835Z AUTO 26006KT 10SM BKN018 OVC029 08/07 A2901 RMK AO2 P0001 T00820072
PAUT 160815Z AUTO 29014G18KT 5SM DZ SCT010 BKN014 OVC021 08/07 A2900 RMK AO2 P0001 T00810072
PAUT 160755Z AUTO 25003KT 7SM BKN016 BKN029 OVC048 08/07 A2899 RMK AO2 P0001 T00800070
PAUT 160735Z AUTO 25005KT 5SM -DZ SCT014 BKN020 OVC045 08/07 A2899 RMK AO2 P0001 T00800071
PAUT 160715Z AUTO 24004KT 7SM SCT019 BKN027 OVC036 08/07 A2899 RMK AO2 T00810072
PAUT 160655Z AUTO 23005KT 7SM SCT027 BKN036 OVC046 08/07 A2898 RMK AO2 T00800070
PAUT 160635Z AUTO 24004KT 10SM SCT021 BKN028 OVC046 08/07 A2897 RMK AO2 T00810071
PAUT 160615Z AUTO 24005KT 7SM BKN019 BKN027 OVC034 08/07 A2897 RMK AO2 T00840070
PAUT 160555Z AUTO 25005KT 10SM OVC019 09/07 A2897 RMK AO2 60009 T00850072 10091 20076
PAUT 160535Z AUTO 22003KT 10SM BKN021 BKN029 OVC037 08/07 A2896 RMK AO2 T00820071
PAUT 160515Z AUTO 00000KT 10SM SCT013 BKN019 OVC037 09/07 A2895 RMK AO2 T00850071
PAUT 160455Z AUTO 00000KT 10SM BKN021 BKN028 OVC038 08/07 A2895 RMK AO2 T00830071
PAUT 160435Z AUTO 26004KT 10SM SCT023 BKN034 OVC055 09/08 A2894 RMK AO2 T00850075
PAUT 160415Z AUTO 28011G20KT 10SM SCT023 BKN027 OVC048 09/08 A2893 RMK AO2 T00860075
PAUT 160355Z AUTO 30011G18KT 7SM SCT021 BKN030 OVC048 09/08 A2892 RMK AO2 T00860075
PAUT 160335Z AUTO 27005KT 10SM SCT020 SCT028 OVC048 09/07 A2892 RMK AO2 T00860073
PAUT 160315Z AUTO 26005KT 10SM SCT021 SCT028 OVC048 09/08 A2891 RMK AO2 T00870075
PAUT 160255Z AUTO 27005KT 10SM SCT023 BKN027 OVC048 09/08 A2891 RMK AO2 60009 T00870075
PAUT 160235Z AUTO 28007KT 10SM SCT018 BKN027 OVC050 09/08 A2890 RMK AO2 T00880076
PAUT 160215Z AUTO 29008G15KT 10SM BKN018 OVC025 09/08 A2890 RMK AO2 T00870076
PAUT 160155Z AUTO 30010G14KT 10SM BKN018 OVC025 09/08 A2889 RMK AO2 T00900078
PAUT 160135Z AUTO 27005KT 10SM BKN017 OVC022 09/08 A2889 RMK AO2 T00910080
PAUT 160115Z AUTO 26005KT 7SM BKN015 BKN023 OVC034 09/08 A2889 RMK AO2 T00850076
PAUT 160055Z AUTO 28005KT 7SM DZ BKN013 BKN024 OVC038 08/07 A2889 RMK AO2 P0009 T00810073
PAUT 160035Z AUTO 29006KT 4SM -RA BKN015 BKN024 OVC029 08/07 A2889 RMK AO2 P0007 T00780070
PAUT 160015Z AUTO 29008KT 4SM -RA SCT029 SCT035 OVC042 08/07 A2889 RMK AO2 P0004 T00790068
PAUT 152355Z AUTO 28008KT 7SM RA SCT032 OVC040 08/08 A2888 RMK AO2 P0001 60002 T00820075 10087 20081
PAUT 152335Z AUTO 30012G19KT 7SM -RA OVC032 09/08 A2888 RMK AO2 T00850076
PAUT 152315Z AUTO 31009G15KT 10SM OVC030 09/08 A2888 RMK AO2 T00850078
PAUT 152255Z AUTO 31013G19KT 10SM BKN028 OVC037 09/08 A2888 RMK AO2 P0001 T00850077
PAUT 152235Z AUTO 29012G17KT 10SM BKN037 OVC049 09/08 A2887 RMK AO2 P0001 T00850077
PAUT 152215Z AUTO 29013G18KT 7SM -RA SCT035 OVC047 09/08 A2887 RMK AO2 P0001 T00850077
PAUT 152155Z AUTO 29013KT 7SM RA SCT049 OVC060 08/08 A2887 RMK AO2 T00830076
PAUT 152135Z AUTO 30012G17KT 7SM -DZ SCT038 BKN048 OVC060 09/08 A2887 RMK AO2 T00860080
PAUT 152115Z AUTO 29015G20KT 7SM BKN007 OVC040 09/08 A2886 RMK AO2 T00870081
PAUT 152055Z AUTO 29013KT 7SM BKN009 OVC016 09/08 A2886 RMK AO2 T00850081
PAUT 152035Z AUTO 29014KT 4SM BR SCT009 SCT015 OVC020 09/08 A2886 RMK AO2 T00850080
PAUT 152015Z AUTO 30018KT 7SM BKN021 OVC028 09/08 A2885 RMK AO2 T00850080
PAUT 151955Z AUTO 29015KT 7SM SCT017 BKN022 OVC041 09/08 A2885 RMK AO2 T00850080
PAUT 151935Z AUTO 30016KT 10SM BKN016 BKN024 OVC044 09/08 A2885 RMK AO2 T00850080
PAUT 151915Z AUTO 31012G17KT 10SM SCT026 OVC044 08/08 A2884 RMK AO2 T00840080
PAUT 151855Z AUTO 30011G18KT 10SM OVC044 08/08 A2884 RMK AO2 T00820078
PAUT 151835Z AUTO 30010KT 7SM BKN042 OVC050 08/08 A2884 RMK AO2 T00820078
PAUT 151815Z AUTO 30011G15KT 7SM SCT027 BKN041 OVC048 08/08 A2884 RMK AO2 T00810077
PAUT 151755Z AUTO 30010KT 7SM SCT013 BKN028 OVC042 08/08 A2883 RMK AO2 60011 T00810077 10089 20080
PAUT 151735Z AUTO 31008KT 10SM SCT006 SCT011 OVC042 08/08 A2883 RMK AO2 T00810077
PAUT 151715Z AUTO 30010KT 10SM SCT006 OVC040 08/08 A2883 RMK AO2 T00810077
PAUT 151655Z AUTO 31008KT 10SM SCT008 BKN040 OVC048 08/08 A2882 RMK AO2 T00800075
PAUT 151635Z AUTO 32009KT 10SM SCT008 BKN020 OVC050 08/08 A2882 RMK AO2 T00800076
PAUT 151615Z AUTO 30009G14KT 7SM SCT008 BKN045 OVC050 08/08 A2882 RMK AO2 T00800076
PAUT 151555Z AUTO 28009KT 7SM BKN016 BKN022 OVC045 08/08 A2882 RMK AO2 T00810076
PAUT 151535Z AUTO 28007G14KT 7SM BKN016 OVC034 08/08 A2881 RMK AO2 T00820077
PAUT 151515Z AUTO 30005KT 10SM SCT034 OVC042 08/08 A2882 RMK AO2 T00810076
PAUT 151455Z AUTO 28003KT 10SM SCT015 SCT020 OVC042 08/08 A2881 RMK AO2 P0002 60011 T00800075
PAUT 151435Z AUTO 00000KT 10SM SCT006 BKN019 OVC040 08/08 A2881 RMK AO2 P0002 T00810077
PAUT 151415Z AUTO 31003G08KT 5SM RA BKN006 BKN012 OVC019 08/08 A2882 RMK AO2 P0002 T00800075
PAUT 151355Z AUTO 00000KT 4SM RA BKN008 OVC012 08/08 A2881 RMK AO2 P0009 T00830079
PAUT 151335Z AUTO 00000KT 4SM DZ BKN010 BKN016 OVC027 09/08 A2881 RMK AO2 P0005 T00850080
PAUT 151315Z AUTO 36004KT 5SM +DZ SCT013 BKN019 OVC030 09/08 A2881 RMK AO2 P0003 T00860080
PAUT 151255Z AUTO 34003KT 7SM BKN017 BKN025 OVC048 09/08 A2882 RMK AO2 T00850078
PAUT 151235Z AUTO 00000KT 10SM BKN014 BKN021 OVC028 09/08 A2882 RMK AO2 T00870079
PAUT 151215Z AUTO 00000KT 10SM -DZ BKN012 BKN022 OVC029 09/08 A2882 RMK AO2 T00890082
PAUT 151155Z AUTO 06003KT 7SM -RA BKN009 OVC015 09/08 A2882 RMK AO2 P0009 60021 70043 T00890083 10089 20075
PAUT 151135Z AUTO 00000KT 5SM -RA OVC009 08/08 A2882 RMK AO2 P0007 T00830078
PAUT 151115Z AUTO 35006KT 7SM RA OVC011 08/08 A2882 RMK AO2 P0002 T00820076
PAUT 151055Z AUTO 36006KT 7SM BKN011 BKN020 OVC032 08/08 A2883 RMK AO2 P0006 T00840076
PAUT 151035Z AUTO 07008KT 5SM +RA SCT020 BKN027 OVC075 09/08 A2883 RMK AO2 P0004 T00850076
PAUT 151015Z AUTO 05005KT 10SM BKN023 BKN032 OVC046 08/08 A2883 RMK AO2 T00830075
PAUT 150955Z AUTO 06009KT 10SM SCT013 BKN020 OVC037 08/08 A2883 RMK AO2 P0001 T00830077
PAUT 150935Z AUTO 08003KT 10SM SCT007 BKN015 OVC038 08/07 A2884 RMK AO2 T00750071
PAUT 150915Z AUTO 00000KT 10SM OVC013 08/08 A2884 RMK AO2 T00800075
PAUT 150855Z AUTO 00000KT 10SM OVC013 08/08 A2884 RMK AO2 60005 T00810077 401000076
PAUT 150835Z AUTO 08005KT 10SM OVC013 08/08 A2884 RMK AO2 T00820078
PAUT 150815Z AUTO 07004KT 10SM DZ BKN011 BKN017 OVC037 08/08 A2884 RMK AO2 T00820078
PAUT 150755Z AUTO 07006KT 10SM -DZ SCT014 BKN020 OVC049 08/08 A2884 RMK AO2 P0002 T00810078
PAUT 150735Z AUTO 07007KT 5SM -RA SCT010 BKN019 OVC033 08/08 A2884 RMK AO2 P0001 T00810077
PAUT 150715Z AUTO 09006KT 10SM BKN008 BKN016 OVC049 09/08 A2884 RMK AO2 P0001 T00850080
PAUT 150655Z AUTO 07005KT 7SM RA SCT008 BKN019 OVC048 08/08 A2884 RMK AO2 P0003 T00840080
PAUT 150635Z AUTO 08005KT 7SM RA SCT031 OVC046 08/08 A2884 RMK AO2 P0002 T00840080
PAUT 150615Z AUTO 07007KT 10SM SCT010 BKN030 OVC060 08/08 A2884 RMK AO2 T00830077
PAUT 150555Z AUTO 07007KT 10SM BKN010 BKN014 OVC055 09/08 A2884 RMK AO2 60012 T00850079 10094 20082
PAUT 150535Z AUTO 08007KT 7SM SCT012 BKN026 BKN040 08/08 A2884 RMK AO2 T00820076
PAUT 150515Z AUTO 08006KT 7SM SCT012 BKN025 OVC044 09/08 A2884 RMK AO2 T00850077
PAUT 150455Z AUTO 10005KT 10SM BKN012 BKN020 OVC031 09/08 A2884 RMK AO2 T00850079
PAUT 150435Z AUTO 07009KT 7SM SCT016 BKN024 OVC041 09/08 A2884 RMK AO2 T00870082
PAUT 150415Z AUTO 10004KT 7SM SCT014 BKN020 OVC038 09/08 A2884 RMK AO2 T00850078
PAUT 150355Z AUTO 09011KT 7SM RA SCT022 BKN036 OVC045 09/08 A2884 RMK AO2 P0006 T00860077
PAUT 150335Z AUTO 09013G22KT 4SM RA SCT021 BKN037 OVC044 09/08 A2884 RMK AO2 P0005 T00860077
PAUT 150315Z AUTO 10010KT 5SM -RA SCT017 BKN040 OVC046 09/08 A2884 RMK AO2 P0003 T00870076
PAUT 150255Z AUTO 09014G19KT 7SM SCT020 BKN026 OVC043 09/08 A2883 RMK AO2 60005 T00930083
PAUT 150235Z AUTO 08012G22KT 4SM -RA SCT014 BKN021 OVC033 09/08 A2884 RMK AO2 T00910081
PAUT 150215Z AUTO 08014G20KT 7SM SCT014 OVC020 09/08 A2884 RMK AO2 T00900081
PAUT 150155Z AUTO 10014G18KT 4SM -RA SCT019 BKN025 OVC037 09/08 A2884 RMK AO2 P0002 T00900081
PAUT 150135Z AUTO 09014G23KT 7SM -RA SCT013 BKN036 OVC046 09/08 A2884 RMK AO2 P0002 T00900080
PAUT 150115Z AUTO 11009KT 5SM DZ OVC015 09/08 A2885 RMK AO2 P0001 T00900081
PAUT 150055Z AUTO 09011KT 10SM RA BKN017 BKN021 OVC026 09/08 A2885 RMK AO2 P0003 T00900081
PAUT 150035Z AUTO 09009G15KT 10SM -DZ BKN017 BKN028 OVC048 09/08 A2886 RMK AO2 P0003 T00900080
PAUT 150015Z AUTO 09011G18KT 4SM -RA SCT012 BKN029 OVC049 09/08 A2886 RMK AO2 P0003 T00880080
PAUT 142355Z AUTO 10008KT 3SM -RA SCT013 BKN018 OVC028 09/08 A2887 RMK AO2 P0004 60005 T00860077 10100 20086